createdAt,value
2023-02-08T00:00:32.917Z,103253.47
2023-02-08T00:05:30.742Z,103259.16
2023-02-08T00:10:29.947Z,103261.00
2023-02-08T00:15:27.782Z,103267.69
2023-02-08T00:20:25.561Z,103278.13
2023-02-08T00:25:23.322Z,103271.69
2023-02-08T00:30:22.517Z,103275.53
2023-02-08T00:35:20.311Z,103266.16
2023-02-08T00:40:18.212Z,103271.69
2023-02-08T00:45:16.033Z,103278.38
2023-02-08T00:50:15.539Z,103275.66
2023-02-08T00:55:13.319Z,103280.84
2023-02-08T01:00:11.929Z,103281.72
2023-02-08T01:05:09.839Z,103278.88
2023-02-08T01:10:12.472Z,103293.66
2023-02-08T01:15:11.765Z,103314.41
2023-02-08T01:20:10.349Z,103314.25
2023-02-08T01:25:09.719Z,103319.53
2023-02-08T01:30:08.698Z,103313.06
2023-02-08T01:35:06.849Z,103316.88
2023-02-08T01:40:04.887Z,103323.06
2023-02-08T01:45:30.096Z,103336.22
2023-02-08T01:50:32.686Z,103335.97
2023-02-08T01:55:34.607Z,103339.78
2023-02-08T02:00:32.852Z,103315.59
2023-02-08T02:05:35.130Z,103334.03
2023-02-08T20:58:14.671Z,60515.13
2023-02-08T21:03:12.640Z,60515.13
2023-02-08T21:08:11.825Z,60515.13
2023-02-08T21:13:09.609Z,60515.13
2023-02-08T21:18:07.551Z,60515.13
2023-02-08T21:23:05.412Z,60515.13
2023-02-08T21:28:04.767Z,60515.13
2023-02-08T21:33:02.638Z,65184.78
2023-02-08T21:38:02.337Z,60515.13
2023-02-08T21:43:00.224Z,60515.13
2023-02-08T21:53:14.397Z,60515.13
2023-02-08T21:58:12.178Z,60515.13
2023-02-08T22:03:10.011Z,60515.13
2023-02-08T22:08:09.204Z,60515.13
2023-02-08T22:13:07.094Z,60515.13
